createdAt,value
2018-02-26T00:01:14.048Z,-10.90
2018-02-26T00:03:42.058Z,-10.90
2018-02-26T00:06:10.093Z,-10.90
2018-02-26T00:08:39.077Z,-11.00
2018-02-26T00:11:08.061Z,-11.00
2018-02-26T00:13:37.041Z,-11.10
2018-02-26T00:16:05.069Z,-11.20
2018-02-26T00:18:38.112Z,-11.20
2018-02-26T00:21:08.140Z,-11.30
2018-02-26T00:23:36.148Z,-11.40
2018-02-26T00:26:09.296Z,-11.10
2018-02-26T00:28:39.296Z,-11.10
2018-02-26T00:31:26.552Z,-11.10
2018-02-26T00:33:55.353Z,-11.20
2018-02-26T00:36:25.116Z,-11.20
2018-02-26T00:38:53.133Z,-11.20
2018-02-26T00:41:26.780Z,-11.30
2018-02-26T00:43:56.809Z,-11.30
2018-02-26T00:46:30.133Z,-11.30
2018-02-26T00:49:04.109Z,-11.20
2018-02-26T00:51:37.600Z,-11.20
2018-02-26T00:54:07.509Z,-11.20
2018-02-26T00:56:36.436Z,-11.20
2018-02-26T00:59:18.736Z,-11.20
2018-02-26T01:01:52.204Z,-11.40
2018-02-26T01:04:21.212Z,-11.40
2018-02-26T01:06:50.189Z,-11.50
2018-02-26T01:09:21.932Z,-11.50
2018-02-26T01:11:51.880Z,-11.50
2018-02-26T01:14:28.121Z,-11.60
2018-02-26T01:16:56.141Z,-11.60
2018-02-26T01:19:29.488Z,-11.70
2018-02-26T01:22:11.037Z,-11.60
2018-02-26T01:24:39.065Z,-11.50
2018-02-26T01:27:08.045Z,-11.50
2018-02-26T01:29:36.076Z,-11.50
2018-02-26T01:32:05.092Z,-11.60
2018-02-26T01:34:34.116Z,-11.70
2018-02-26T01:37:03.924Z,-11.70
2018-02-26T01:39:36.584Z,-11.70
2018-02-26T01:42:19.904Z,-11.70
2018-02-26T01:44:54.248Z,-11.70
2018-02-26T01:47:23.064Z,-11.80
2018-02-26T01:49:58.024Z,-11.90
2018-02-26T01:52:29.773Z,-11.90
2018-02-26T01:54:57.820Z,-11.70
2018-02-26T01:57:30.437Z,-11.70
2018-02-26T02:00:01.509Z,-11.70
2018-02-26T02:02:30.476Z,-11.70
2018-02-26T02:05:02.368Z,-11.80
2018-02-26T02:07:31.336Z,-11.90
2018-02-26T02:10:00.312Z,-11.70
2018-02-26T02:12:32.904Z,-11.70
2018-02-26T02:15:01.889Z,-11.80
2018-02-26T02:17:33.771Z,-11.90
2018-02-26T02:20:02.744Z,-12.00
2018-02-26T02:22:33.903Z,-12.00
2018-02-26T02:25:12.468Z,-12.00
2018-02-26T02:27:43.260Z,-12.00
2018-02-26T02:30:12.241Z,-12.10
2018-02-26T02:32:40.264Z,-12.00
2018-02-26T02:35:15.108Z,-12.20
2018-02-26T02:37:45.060Z,-12.20
2018-02-26T02:40:17.117Z,-12.10
2018-02-26T02:42:50.098Z,-12.20
2018-02-26T02:45:29.516Z,-12.10
2018-02-26T02:47:57.548Z,-12.10
2018-02-26T02:50:27.517Z,-12.30
2018-02-26T02:53:14.888Z,-12.30
2018-02-26T02:55:47.812Z,-12.20
2018-02-26T02:58:17.847Z,-12.20
2018-02-26T03:00:47.492Z,-12.20
2018-02-26T03:03:16.433Z,-12.30
2018-02-26T03:08:39.004Z,-12.30
2018-02-26T03:11:07.036Z,-12.30
2018-02-26T03:13:54.251Z,-12.30
2018-02-26T03:16:34.320Z,-12.40
2018-02-26T03:19:14.951Z,-12.40
2018-02-26T03:21:42.976Z,-12.40
2018-02-26T03:24:14.344Z,-12.40
2018-02-26T03:26:43.136Z,-12.40
2018-02-26T03:29:35.908Z,-12.40
2018-02-26T03:32:05.882Z,-12.40
2018-02-26T03:34:39.188Z,-12.40
2018-02-26T03:37:12.359Z,-12.60
2018-02-26T03:39:50.991Z,-12.60
2018-02-26T03:42:22.219Z,-12.60
2018-02-26T03:44:51.200Z,-12.70
2018-02-26T03:47:26.180Z,-12.60
2018-02-26T03:49:54.960Z,-12.70
2018-02-26T03:52:25.672Z,-12.70
2018-02-26T03:54:57.131Z,-12.70
2018-02-26T03:57:25.651Z,-12.70
2018-02-26T03:59:54.581Z,-12.80
2018-02-26T04:02:27.359Z,-12.80
2018-02-26T04:04:55.386Z,-12.80
2018-02-26T04:07:25.155Z,-13.00
2018-02-26T04:09:57.131Z,-13.00
2018-02-26T04:12:36.419Z,-13.00
2018-02-26T04:15:05.215Z,-13.20
2018-02-26T04:17:53.535Z,-13.20
2018-02-26T04:20:26.471Z,-13.30
2018-02-26T04:22:54.511Z,-13.30
2018-02-26T04:25:22.539Z,-13.30
2018-02-26T04:27:51.336Z,-13.20
2018-02-26T04:30:19.352Z,-13.20
2018-02-26T04:32:51.227Z,-13.10
2018-02-26T04:35:22.855Z,-13.10
2018-02-26T04:37:50.903Z,-13.20
2018-02-26T04:40:19.696Z,-12.90
2018-02-26T04:42:49.663Z,-12.90
2018-02-26T04:45:24.267Z,-12.90
2018-02-26T04:47:54.031Z,-12.90
2018-02-26T04:50:25.728Z,-13.00
2018-02-26T04:53:02.279Z,-12.90
2018-02-26T04:55:30.398Z,-12.90
2018-02-26T04:57:59.195Z,-12.80
2018-02-26T05:00:29.495Z,-12.80
2018-02-26T05:03:03.191Z,-12.80
2018-02-26T05:05:32.200Z,-12.80
2018-02-26T05:08:01.987Z,-12.50
2018-02-26T05:10:37.515Z,-12.60
2018-02-26T05:13:07.487Z,-12.50
2018-02-26T05:15:39.835Z,-12.20
2018-02-26T05:18:07.845Z,-12.20
2018-02-26T05:20:42.298Z,-12.00
2018-02-26T05:23:10.330Z,-11.90
2018-02-26T05:25:42.383Z,-11.80
2018-02-26T05:28:15.183Z,-11.70
2018-02-26T05:30:45.162Z,-11.70
2018-02-26T05:33:21.691Z,-11.70
2018-02-26T05:35:53.690Z,-11.70
2018-02-26T05:38:29.407Z,-11.70
2018-02-26T05:40:57.451Z,-11.70
2018-02-26T05:43:26.427Z,-11.60
2018-02-26T05:45:55.219Z,-11.50
2018-02-26T05:48:24.979Z,-11.50
2018-02-26T05:50:54.990Z,-11.50
2018-02-26T05:53:25.027Z,-11.50
2018-02-26T05:55:56.770Z,-11.50
2018-02-26T05:58:24.799Z,-11.40
2018-02-26T06:00:59.479Z,-11.40
2018-02-26T06:03:38.187Z,-11.30
2018-02-26T06:06:07.207Z,-11.20
2018-02-26T06:08:39.267Z,-11.20
2018-02-26T06:11:09.054Z,-11.20
2018-02-26T06:13:38.038Z,-11.20
2018-02-26T06:16:06.046Z,-11.20
2018-02-26T06:18:36.738Z,-11.30
2018-02-26T06:21:04.759Z,-11.30
2018-02-26T06:23:36.988Z,-11.30
2018-02-26T06:26:07.002Z,-11.30
2018-02-26T06:28:40.766Z,-11.30
2018-02-26T06:31:08.806Z,-11.40
2018-02-26T06:33:37.612Z,-11.40
2018-02-26T06:36:06.546Z,-11.40
2018-02-26T06:38:34.574Z,-11.40
2018-02-26T06:41:03.510Z,-11.30
2018-02-26T06:43:32.302Z,-11.30
2018-02-26T06:46:01.331Z,-11.20
2018-02-26T06:48:31.110Z,-11.10
2018-02-26T06:50:59.153Z,-11.10
2018-02-26T06:53:27.938Z,-11.00
2018-02-26T06:55:56.942Z,-11.00
2018-02-26T06:58:24.970Z,-11.00
2018-02-26T07:00:52.984Z,-11.00
2018-02-26T07:03:21.009Z,-11.00
2018-02-26T07:05:55.205Z,-10.90
2018-02-26T07:08:24.968Z,-10.60
2018-02-26T07:10:52.986Z,-10.60
2018-02-26T07:13:22.746Z,-10.10
2018-02-26T07:15:50.754Z,-10.10
2018-02-26T07:18:24.531Z,-9.20
2018-02-26T07:20:52.558Z,-9.20
2018-02-26T07:23:20.565Z,-8.70
2018-02-26T07:25:52.230Z,-8.40
2018-02-26T07:28:33.254Z,-8.10
2018-02-26T07:31:01.277Z,-7.70
2018-02-26T07:33:29.305Z,-7.80
2018-02-26T07:35:58.233Z,-7.80
2018-02-26T07:38:30.497Z,-7.90
2018-02-26T07:40:58.521Z,-7.80
2018-02-26T07:43:30.110Z,-7.40
2018-02-26T07:45:58.149Z,-7.20
2018-02-26T07:48:27.090Z,-7.50
2018-02-26T07:50:59.687Z,-8.10
2018-02-26T07:53:28.606Z,-8.30
2018-02-26T07:55:57.229Z,-8.60
2018-02-26T07:58:30.465Z,-8.90
2018-02-26T08:01:02.289Z,-8.70
2018-02-26T08:03:33.317Z,-8.60
2018-02-26T08:06:16.351Z,-8.80
2018-02-26T08:08:45.349Z,-8.10
2018-02-26T08:11:13.410Z,-8.00
2018-02-26T08:13:41.441Z,-7.60
2018-02-26T08:16:11.385Z,-7.20
2018-02-26T08:18:45.086Z,-6.70
2018-02-26T08:21:13.997Z,-5.60
2018-02-26T08:23:42.041Z,-4.80
2018-02-26T08:26:14.093Z,-4.70
2018-02-26T08:28:44.026Z,-4.10
2018-02-26T08:31:13.039Z,-3.30
2018-02-26T08:33:41.953Z,-2.70
2018-02-26T08:36:15.566Z,-2.90
2018-02-26T08:38:43.582Z,-2.90
2018-02-26T08:41:11.609Z,-3.40
2018-02-26T08:43:39.621Z,-3.80
2018-02-26T08:46:07.645Z,-4.40
2018-02-26T08:48:37.306Z,-5.20
2018-02-26T08:51:05.326Z,-5.20
2018-02-26T08:53:33.362Z,-4.50
2018-02-26T08:56:05.202Z,-3.60
2018-02-26T08:58:37.818Z,-2.50
2018-02-26T09:01:06.598Z,-1.00
2018-02-26T09:03:52.219Z,-1.30
2018-02-26T09:06:21.578Z,-1.30
2018-02-26T09:08:53.817Z,-1.70
2018-02-26T09:11:21.810Z,-1.70
2018-02-26T09:13:52.516Z,-2.10
2018-02-26T09:16:20.510Z,-2.20
2018-02-26T09:18:52.646Z,-3.80
2018-02-26T09:21:25.518Z,-3.80
2018-02-26T09:23:53.529Z,-5.70
2018-02-26T09:26:23.510Z,-6.70
2018-02-26T09:28:53.566Z,-6.70
2018-02-26T09:31:24.269Z,-5.70
2018-02-26T09:33:52.290Z,-5.70
2018-02-26T09:36:20.301Z,-5.40
2018-02-26T09:38:48.314Z,-3.10
2018-02-26T09:41:17.086Z,-1.00
2018-02-26T09:43:45.996Z,-1.00
2018-02-26T09:46:14.766Z,1.00
2018-02-26T09:48:43.682Z,0.90
2018-02-26T09:51:12.453Z,2.00
2018-02-26T09:53:45.082Z,2.20
2018-02-26T09:56:13.118Z,2.20
2018-02-26T09:58:47.957Z,1.20
2018-02-26T10:01:21.977Z,0.90
2018-02-26T10:03:49.982Z,1.10
2018-02-26T10:06:21.408Z,2.20
2018-02-26T10:08:52.572Z,0.50
2018-02-26T10:11:20.566Z,-1.40
2018-02-26T10:13:54.842Z,-2.90
2018-02-26T10:16:23.614Z,-3.60
2018-02-26T10:18:52.529Z,-3.70
2018-02-26T10:21:20.537Z,-4.10
2018-02-26T10:23:49.633Z,-5.00
2018-02-26T10:26:21.298Z,-5.00
2018-02-26T10:28:52.402Z,-4.90
2018-02-26T10:31:22.326Z,-4.80
2018-02-26T10:33:51.290Z,-4.40
2018-02-26T10:36:19.305Z,-4.40
2018-02-26T10:38:48.105Z,-2.70
2018-02-26T10:41:19.662Z,-2.80
2018-02-26T10:43:47.630Z,0.50
2018-02-26T10:46:15.645Z,1.80
2018-02-26T10:48:44.558Z,1.20
2018-02-26T10:51:17.126Z,-1.30
2018-02-26T10:53:46.029Z,-1.00
2018-02-26T10:56:16.622Z,-1.80
2018-02-26T10:58:44.637Z,-1.80
2018-02-26T11:01:24.005Z,-3.50
2018-02-26T11:03:52.010Z,-3.50
2018-02-26T11:06:20.921Z,-1.50
2018-02-26T11:08:50.894Z,1.00
2018-02-26T11:11:32.227Z,0.90
2018-02-26T11:14:01.002Z,0.70
2018-02-26T11:16:29.894Z,0.60
2018-02-26T11:18:58.870Z,0.50
2018-02-26T11:21:27.858Z,-0.80
2018-02-26T11:23:55.925Z,0.20
2018-02-26T11:26:24.813Z,1.10
2018-02-26T11:28:52.823Z,0.80
2018-02-26T11:31:26.358Z,1.50
2018-02-26T11:34:00.061Z,1.50
2018-02-26T11:36:31.441Z,3.60
2018-02-26T11:39:01.093Z,2.10
2018-02-26T11:41:29.853Z,4.90
2018-02-26T11:44:01.386Z,4.90
2018-02-26T11:46:30.305Z,7.20
2018-02-26T11:48:58.986Z,6.90
